Time;durP1;ratioP1;P1;durP2;ratioP2;P2;SDS_P1;SDS_P2;PMS_P1;PMS_P2;Temp;Humidity;BMP_temperature;BMP_pressure;BME280_temperature;BME280_humidity;BME280_pressure;Samples;Min_cycle;Max_cycle;Signal;HPM_P1;HPM_P2
2021/07/26 00:02:50;;;;;;;6.60;5.90;;;;;;;;;;4977439;28;20186;-88
2021/07/26 00:05:55;;;;;;;8.73;6.90;;;;;;;;;;4982364;28;20186;-89
2021/07/26 00:09:00;;;;;;;9.00;7.23;;;;;;;;;;4993872;28;20218;-88
2021/07/26 00:12:06;;;;;;;12.07;6.73;;;;;;;;;;4980691;28;20637;-88
2021/07/26 00:15:11;;;;;;;8.53;6.40;;;;;;;;;;4991741;28;20186;-88
2021/07/26 00:18:15;;;;;;;7.77;6.70;;;;;;;;;;4961150;28;20578;-88
2021/07/26 00:21:20;;;;;;;9.97;7.13;;;;;;;;;;4960783;28;20191;-88
2021/07/26 00:24:25;;;;;;;10.53;7.50;;;;;;;;;;4974851;28;20178;-88
2021/07/26 00:27:29;;;;;;;16.10;7.90;;;;;;;;;;4975568;28;20530;-88
2021/07/26 00:30:36;;;;;;;9.97;8.00;;;;;;;;;;4965957;28;20643;-88
2021/07/26 00:34:08;;;;;;;7.73;6.87;;;;;;;;;;4973639;28;20194;-88
2021/07/26 00:37:13;;;;;;;12.23;7.27;;;;;;;;;;4993654;28;20190;-88
2021/07/26 00:40:18;;;;;;;8.53;6.83;;;;;;;;;;4949444;28;20194;-88
2021/07/26 00:43:22;;;;;;;12.07;7.33;;;;;;;;;;4980459;28;20542;-88
2021/07/26 00:46:27;;;;;;;10.53;6.90;;;;;;;;;;4982598;28;20182;-88
2021/07/26 00:49:31;;;;;;;8.63;6.13;;;;;;;;;;4943648;29;20219;-88
2021/07/26 00:52:35;;;;;;;9.37;6.73;;;;;;;;;;4967591;28;20526;-88
2021/07/26 00:55:41;;;;;;;8.60;7.23;;;;;;;;;;4993687;28;20186;-89
2021/07/26 00:58:46;;;;;;;9.30;7.20;;;;;;;;;;4963036;28;20227;-87
2021/07/26 01:01:50;;;;;;;11.43;7.40;;;;;;;;;;4969403;28;20198;-88
2021/07/26 01:04:53;;;;;;;11.63;6.70;;;;;;;;;;4982535;28;20186;-88
2021/07/26 01:07:57;;;;;;;10.17;7.23;;;;;;;;;;4979869;28;20190;-88
2021/07/26 01:11:03;;;;;;;10.23;8.43;;;;;;;;;;4964130;28;20194;-88
2021/07/26 01:14:08;;;;;;;10.43;7.30;;;;;;;;;;4962814;28;20191;-88
2021/07/26 01:17:14;;;;;;;11.10;7.40;;;;;;;;;;4965477;28;20190;-88
2021/07/26 01:20:18;;;;;;;9.53;8.17;;;;;;;;;;4974829;28;20183;-88
2021/07/26 01:23:23;;;;;;;10.03;8.40;;;;;;;;;;4956422;28;20190;-88
2021/07/26 01:26:29;;;;;;;13.67;7.77;;;;;;;;;;4958150;28;20535;-88
2021/07/26 01:29:33;;;;;;;12.23;7.77;;;;;;;;;;4959274;28;20706;-88
2021/07/26 01:32:37;;;;;;;8.23;7.37;;;;;;;;;;4966484;28;20630;-88
2021/07/26 01:35:41;;;;;;;13.43;7.93;;;;;;;;;;4958066;28;20224;-88
2021/07/26 01:38:46;;;;;;;13.13;8.00;;;;;;;;;;4988133;28;20222;-88
2021/07/26 01:41:54;;;;;;;11.93;8.87;;;;;;;;;;4965867;28;20188;-87
2021/07/26 01:44:58;;;;;;;12.50;7.60;;;;;;;;;;4976739;28;20187;-88
2021/07/26 01:48:09;;;;;;;13.47;7.93;;;;;;;;;;4972963;28;20222;-88
2021/07/26 01:51:27;;;;;;;11.57;7.70;;;;;;;;;;4965999;28;20191;-88
2021/07/26 01:54:31;;;;;;;10.40;7.40;;;;;;;;;;4946894;29;20184;-88
2021/07/26 01:57:35;;;;;;;9.60;7.10;;;;;;;;;;4944606;28;20191;-87
2021/07/26 02:00:39;;;;;;;8.33;6.97;;;;;;;;;;4970921;28;20186;-88
2021/07/26 02:03:44;;;;;;;15.57;9.10;;;;;;;;;;4965597;28;20187;-88
2021/07/26 02:06:48;;;;;;;11.37;8.70;;;;;;;;;;4980203;28;20186;-88
2021/07/26 02:09:53;;;;;;;11.43;8.07;;;;;;;;;;4973712;28;20217;-87
2021/07/26 02:12:58;;;;;;;12.30;7.90;;;;;;;;;;4984861;28;20518;-87
2021/07/26 02:16:02;;;;;;;10.27;7.40;;;;;;;;;;4967744;28;20195;-87
2021/07/26 02:19:06;;;;;;;8.97;7.27;;;;;;;;;;4952296;28;20231;-87
2021/07/26 02:22:10;;;;;;;8.17;7.37;;;;;;;;;;4964906;28;20207;-88
2021/07/26 02:25:16;;;;;;;9.20;7.93;;;;;;;;;;4949539;28;20207;-87
2021/07/26 02:28:21;;;;;;;9.17;7.47;;;;;;;;;;4964628;28;20218;-87
2021/07/26 02:31:26;;;;;;;9.27;7.80;;;;;;;;;;4978153;28;20198;-87
2021/07/26 02:34:30;;;;;;;10.50;7.67;;;;;;;;;;4971659;28;20195;-87
2021/07/26 02:37:34;;;;;;;11.87;7.60;;;;;;;;;;4946115;29;20183;-87
2021/07/26 02:40:38;;;;;;;8.77;7.87;;;;;;;;;;4954444;28;20194;-87
2021/07/26 02:43:42;;;;;;;11.53;7.37;;;;;;;;;;4956762;28;20670;-87
2021/07/26 02:46:47;;;;;;;9.20;8.30;;;;;;;;;;4951979;28;20547;-88
2021/07/26 02:49:51;;;;;;;9.23;7.53;;;;;;;;;;4949148;28;20568;-87
2021/07/26 02:52:59;;;;;;;11.47;8.50;;;;;;;;;;4961043;28;20195;-87
2021/07/26 02:56:08;;;;;;;10.27;8.47;;;;;;;;;;4975721;28;20191;-87
2021/07/26 02:59:11;;;;;;;12.53;7.90;;;;;;;;;;4956056;28;20231;-88
2021/07/26 03:02:16;;;;;;;16.30;7.63;;;;;;;;;;4962246;28;20653;-87
2021/07/26 03:05:19;;;;;;;11.00;7.57;;;;;;;;;;4951172;28;20199;-88
2021/07/26 03:08:23;;;;;;;16.50;7.63;;;;;;;;;;4982033;28;20218;-87
2021/07/26 03:11:28;;;;;;;12.47;7.47;;;;;;;;;;4984023;28;20186;-87
2021/07/26 03:14:32;;;;;;;13.30;7.70;;;;;;;;;;4970874;28;20199;-87
2021/07/26 03:17:39;;;;;;;10.30;6.67;;;;;;;;;;4983592;28;20182;-87
2021/07/26 03:20:46;;;;;;;14.50;7.00;;;;;;;;;;4993078;28;20542;-88
2021/07/26 03:23:50;;;;;;;12.70;7.00;;;;;;;;;;4970061;28;20199;-87
2021/07/26 03:26:55;;;;;;;12.57;6.80;;;;;;;;;;4973657;28;20202;-87
2021/07/26 03:29:59;;;;;;;7.60;6.30;;;;;;;;;;4979505;28;20214;-87
2021/07/26 03:33:03;;;;;;;12.37;7.07;;;;;;;;;;4960997;28;20183;-87
2021/07/26 03:36:07;;;;;;;10.77;7.13;;;;;;;;;;4971400;28;20209;-87
2021/07/26 03:39:11;;;;;;;9.70;7.70;;;;;;;;;;4993471;28;20589;-87
2021/07/26 03:42:15;;;;;;;15.07;8.27;;;;;;;;;;4983498;28;20183;-87
2021/07/26 03:45:20;;;;;;;10.80;8.10;;;;;;;;;;4966959;28;20187;-87
2021/07/26 03:48:25;;;;;;;11.20;7.53;;;;;;;;;;4981482;28;20214;-87
2021/07/26 03:51:29;;;;;;;10.80;7.40;;;;;;;;;;4982531;28;20197;-86
2021/07/26 03:54:33;;;;;;;13.97;7.90;;;;;;;;;;4969001;28;20198;-86
2021/07/26 03:57:38;;;;;;;15.30;7.87;;;;;;;;;;4982438;28;20202;-86
2021/07/26 04:00:42;;;;;;;8.87;7.43;;;;;;;;;;5012700;23;20224;-87
2021/07/26 04:03:46;;;;;;;11.00;7.43;;;;;;;;;;4995035;28;20197;-87
2021/07/26 04:06:57;;;;;;;15.37;7.80;;;;;;;;;;4972782;28;20533;-87
2021/07/26 04:10:05;;;;;;;11.63;8.00;;;;;;;;;;4980869;28;20214;-86
2021/07/26 04:13:09;;;;;;;11.57;8.67;;;;;;;;;;4982579;28;20182;-87
2021/07/26 04:16:13;;;;;;;10.97;8.40;;;;;;;;;;4982936;28;20186;-86
2021/07/26 04:19:17;;;;;;;11.50;8.73;;;;;;;;;;4989582;28;20226;-86
2021/07/26 04:22:22;;;;;;;14.50;9.30;;;;;;;;;;4959899;28;20194;-87
2021/07/26 04:25:26;;;;;;;12.17;8.90;;;;;;;;;;4982665;28;20522;-87
2021/07/26 04:28:30;;;;;;;14.00;8.30;;;;;;;;;;4974009;28;20182;-87
2021/07/26 04:31:34;;;;;;;11.43;8.50;;;;;;;;;;4996736;28;20201;-87
2021/07/26 04:34:40;;;;;;;10.53;8.00;;;;;;;;;;4968868;28;20530;-86
2021/07/26 04:37:46;;;;;;;17.50;9.80;;;;;;;;;;4958759;28;20224;-86
2021/07/26 04:40:51;;;;;;;12.90;9.50;;;;;;;;;;4970085;28;20218;-87
2021/07/26 04:43:55;;;;;;;16.83;9.70;;;;;;;;;;4974719;28;20198;-87
2021/07/26 04:46:59;;;;;;;13.57;8.90;;;;;;;;;;4963212;28;20534;-86
2021/07/26 04:50:11;;;;;;;15.10;9.70;;;;;;;;;;4965102;28;20697;-87
2021/07/26 04:53:15;;;;;;;15.20;9.43;;;;;;;;;;4977243;28;20650;-87
2021/07/26 04:56:22;;;;;;;12.43;10.03;;;;;;;;;;4973742;28;20214;-87
2021/07/26 04:59:46;;;;;;;12.60;9.40;;;;;;;;;;4986802;28;20226;-86
2021/07/26 05:02:50;;;;;;;16.43;11.37;;;;;;;;;;4958161;28;20206;-86
2021/07/26 05:05:54;;;;;;;11.93;10.10;;;;;;;;;;4976668;28;20199;-87
2021/07/26 05:08:58;;;;;;;13.63;9.10;;;;;;;;;;4985748;28;20224;-83
2021/07/26 05:12:05;;;;;;;13.23;8.03;;;;;;;;;;4982345;28;20649;-85
2021/07/26 05:15:09;;;;;;;8.97;7.30;;;;;;;;;;4985179;28;20198;-84
2021/07/26 05:18:14;;;;;;;12.13;6.87;;;;;;;;;;4978773;28;20191;-84
2021/07/26 05:21:18;;;;;;;12.27;6.87;;;;;;;;;;4958937;28;20186;-84
2021/07/26 05:24:24;;;;;;;9.57;6.57;;;;;;;;;;4978099;28;20258;-84
2021/07/26 05:27:28;;;;;;;12.33;7.23;;;;;;;;;;4966837;28;20203;-84
2021/07/26 05:30:32;;;;;;;12.00;6.60;;;;;;;;;;4984557;28;20218;-84
2021/07/26 05:33:36;;;;;;;9.93;6.77;;;;;;;;;;4972748;28;20194;-84
2021/07/26 05:36:40;;;;;;;13.93;6.57;;;;;;;;;;4976583;28;20202;-84
2021/07/26 05:39:44;;;;;;;8.80;6.50;;;;;;;;;;4966568;28;20222;-84
2021/07/26 05:42:49;;;;;;;13.07;6.77;;;;;;;;;;4985461;28;20198;-84
2021/07/26 05:45:53;;;;;;;8.63;5.90;;;;;;;;;;4986286;28;20186;-84
2021/07/26 05:48:57;;;;;;;13.73;5.67;;;;;;;;;;4972672;28;20222;-84
2021/07/26 05:52:01;;;;;;;8.80;6.67;;;;;;;;;;4994838;28;20256;-84
2021/07/26 05:55:07;;;;;;;18.23;6.93;;;;;;;;;;4974143;28;20198;-86
2021/07/26 05:58:11;;;;;;;7.90;6.77;;;;;;;;;;4973982;28;20202;-84
2021/07/26 06:04:24;;;;;;;8.43;6.53;;;;;;;;;;4978326;28;20546;-84
2021/07/26 06:07:28;;;;;;;10.70;6.00;;;;;;;;;;4970662;28;20201;-83
2021/07/26 06:10:33;;;;;;;9.23;5.27;;;;;;;;;;4973947;28;20209;-83
2021/07/26 06:13:37;;;;;;;11.93;7.10;;;;;;;;;;4982740;28;20538;-83
2021/07/26 06:16:43;;;;;;;8.33;5.60;;;;;;;;;;4987887;28;20202;-86
2021/07/26 06:19:47;;;;;;;11.23;5.07;;;;;;;;;;4977327;28;20230;-85
2021/07/26 06:22:53;;;;;;;6.17;5.50;;;;;;;;;;4974872;28;20195;-87
2021/07/26 06:25:57;;;;;;;9.10;5.57;;;;;;;;;;4978852;28;20198;-84
2021/07/26 06:29:01;;;;;;;11.27;6.07;;;;;;;;;;4979678;28;20222;-85
2021/07/26 06:32:05;;;;;;;10.43;5.97;;;;;;;;;;4954476;28;20179;-84
2021/07/26 06:35:10;;;;;;;10.73;6.47;;;;;;;;;;4965549;28;20187;-86
2021/07/26 06:38:14;;;;;;;14.63;6.50;;;;;;;;;;4954612;28;20187;-85
2021/07/26 06:41:19;;;;;;;9.97;6.53;;;;;;;;;;4995494;28;20178;-86
2021/07/26 06:44:23;;;;;;;9.90;6.40;;;;;;;;;;4980348;28;20194;-85
2021/07/26 06:47:27;;;;;;;10.57;6.70;;;;;;;;;;4954134;28;20202;-86
2021/07/26 06:50:31;;;;;;;15.83;6.03;;;;;;;;;;4964907;28;20222;-85
2021/07/26 06:53:35;;;;;;;15.17;6.17;;;;;;;;;;4979088;28;20194;-85
2021/07/26 06:56:39;;;;;;;10.17;5.27;;;;;;;;;;4978155;28;20210;-86
2021/07/26 06:59:43;;;;;;;8.77;5.27;;;;;;;;;;4963993;28;20234;-85
2021/07/26 07:02:50;;;;;;;8.83;6.00;;;;;;;;;;4973245;28;20198;-85
2021/07/26 07:06:03;;;;;;;11.93;6.30;;;;;;;;;;4986906;28;20543;-85
2021/07/26 07:09:07;;;;;;;12.77;6.50;;;;;;;;;;4986991;28;20218;-85
2021/07/26 07:12:15;;;;;;;8.47;6.20;;;;;;;;;;4975200;28;20191;-85
2021/07/26 07:15:21;;;;;;;10.80;5.67;;;;;;;;;;4975021;28;20187;-85
2021/07/26 07:18:25;;;;;;;7.37;5.67;;;;;;;;;;4975713;28;20194;-86
2021/07/26 07:21:31;;;;;;;9.67;5.90;;;;;;;;;;4953740;28;20183;-85
2021/07/26 07:24:35;;;;;;;10.50;6.00;;;;;;;;;;4964984;28;20198;-86
2021/07/26 07:27:39;;;;;;;7.00;5.43;;;;;;;;;;4981808;28;20191;-86
2021/07/26 07:30:44;;;;;;;8.87;6.40;;;;;;;;;;4983281;28;20222;-85
2021/07/26 07:33:48;;;;;;;11.77;7.27;;;;;;;;;;4987978;28;20199;-85
2021/07/26 07:36:52;;;;;;;10.47;6.53;;;;;;;;;;4975034;28;20528;-84
2021/07/26 07:39:58;;;;;;;11.80;6.97;;;;;;;;;;4963901;28;20227;-85
2021/07/26 07:43:02;;;;;;;12.93;7.77;;;;;;;;;;4975157;28;20195;-86
2021/07/26 07:46:07;;;;;;;8.43;6.17;;;;;;;;;;4963945;28;20187;-89
2021/07/26 07:49:12;;;;;;;9.50;6.40;;;;;;;;;;4965633;28;20222;-89
2021/07/26 07:52:17;;;;;;;11.03;7.57;;;;;;;;;;4963546;28;20183;-89
2021/07/26 07:55:24;;;;;;;8.43;6.67;;;;;;;;;;4964508;28;20203;-88
2021/07/26 07:59:31;;;;;;;8.83;6.93;;;;;;;;;;4987803;28;20197;-89
2021/07/26 08:02:59;;;;;;;12.33;7.73;;;;;;;;;;4974047;28;20210;-89
2021/07/26 08:07:09;;;;;;;9.57;6.20;;;;;;;;;;4983679;28;20198;-88
2021/07/26 08:10:15;;;;;;;7.53;6.40;;;;;;;;;;4964801;28;20564;-85
2021/07/26 08:13:23;;;;;;;8.90;6.43;;;;;;;;;;4953337;28;20678;-85
2021/07/26 08:16:28;;;;;;;7.70;5.80;;;;;;;;;;4982378;28;20211;-85
2021/07/26 08:19:32;;;;;;;9.40;5.90;;;;;;;;;;4973534;28;20227;-85
2021/07/26 08:22:37;;;;;;;8.13;5.73;;;;;;;;;;4963727;28;20189;-85
2021/07/26 08:25:41;;;;;;;6.67;6.00;;;;;;;;;;4991207;28;20197;-85
2021/07/26 08:28:45;;;;;;;5.60;4.93;;;;;;;;;;4993700;28;20185;-85
2021/07/26 08:31:49;;;;;;;5.90;5.30;;;;;;;;;;4992246;28;20204;-85
2021/07/26 08:34:53;;;;;;;8.97;5.70;;;;;;;;;;4985415;28;20213;-85
2021/07/26 08:37:59;;;;;;;9.70;5.33;;;;;;;;;;4993238;28;20214;-85
2021/07/26 08:41:03;;;;;;;7.07;5.10;;;;;;;;;;4975847;28;20556;-85
2021/07/26 08:44:07;;;;;;;5.57;4.37;;;;;;;;;;4965637;28;20195;-85
2021/07/26 08:47:12;;;;;;;7.47;4.70;;;;;;;;;;4971672;28;20201;-85
2021/07/26 08:50:18;;;;;;;5.83;4.57;;;;;;;;;;4980549;28;20223;-85
2021/07/26 08:53:24;;;;;;;5.30;4.80;;;;;;;;;;4973844;28;20202;-85
2021/07/26 08:56:28;;;;;;;6.20;4.47;;;;;;;;;;4974129;28;20205;-85
2021/07/26 08:59:32;;;;;;;6.88;4.07;;;;;;;;;;4974066;28;20226;-86
2021/07/26 09:02:36;;;;;;;5.88;3.97;;;;;;;;;;4974538;28;20193;-86
2021/07/26 09:05:43;;;;;;;4.90;3.60;;;;;;;;;;4963070;28;20523;-86
2021/07/26 09:08:47;;;;;;;6.60;4.00;;;;;;;;;;4964129;28;20204;-86
2021/07/26 09:11:51;;;;;;;4.15;3.58;;;;;;;;;;4973368;28;20187;-86
2021/07/26 09:14:55;;;;;;;6.22;3.75;;;;;;;;;;4967003;28;20201;-86
2021/07/26 09:18:07;;;;;;;6.72;4.20;;;;;;;;;;4969836;28;20198;-86
2021/07/26 09:21:11;;;;;;;6.07;4.53;;;;;;;;;;4977658;28;20224;-85
2021/07/26 09:24:22;;;;;;;5.93;4.20;;;;;;;;;;4973441;28;20188;-86
2021/07/26 09:27:26;;;;;;;7.45;4.32;;;;;;;;;;4962729;28;20185;-85
2021/07/26 09:30:41;;;;;;;5.00;3.97;;;;;;;;;;4986438;28;20224;-86
2021/07/26 09:33:46;;;;;;;7.18;4.82;;;;;;;;;;4967056;28;20191;-86
2021/07/26 09:36:50;;;;;;;4.93;4.25;;;;;;;;;;4983881;28;20202;-86
2021/07/26 09:39:54;;;;;;;6.20;4.35;;;;;;;;;;4965865;28;20228;-86
2021/07/26 09:43:33;;;;;;;10.00;4.40;;;;;;;;;;4977509;28;20194;-86
2021/07/26 09:46:43;;;;;;;4.90;3.90;;;;;;;;;;4936324;28;20193;-86
2021/07/26 09:49:48;;;;;;;6.90;4.43;;;;;;;;;;4972944;28;20225;-86
2021/07/26 09:52:53;;;;;;;5.35;3.90;;;;;;;;;;4984345;28;20187;-86
2021/07/26 09:55:59;;;;;;;5.38;3.53;;;;;;;;;;4964979;28;20195;-86
2021/07/26 09:59:03;;;;;;;5.47;3.78;;;;;;;;;;4976485;28;20678;-86
2021/07/26 10:02:08;;;;;;;4.70;3.78;;;;;;;;;;5014328;23;20236;-88
2021/07/26 10:05:12;;;;;;;3.95;3.40;;;;;;;;;;4991707;28;20211;-88
2021/07/26 10:08:17;;;;;;;5.13;3.30;;;;;;;;;;4998579;28;20183;-89
2021/07/26 10:11:21;;;;;;;4.95;3.38;;;;;;;;;;4973936;28;20184;-89
2021/07/26 10:14:25;;;;;;;4.78;3.05;;;;;;;;;;4974876;28;20200;-88
2021/07/26 10:17:29;;;;;;;4.85;3.53;;;;;;;;;;4974246;28;20196;-89
2021/07/26 10:21:02;;;;;;;3.67;3.38;;;;;;;;;;4973990;28;20205;-88
2021/07/26 10:24:08;;;;;;;4.60;3.13;;;;;;;;;;4998272;28;20194;-88
2021/07/26 10:27:18;;;;;;;4.82;2.70;;;;;;;;;;4977988;28;20197;-89
2021/07/26 10:30:30;;;;;;;6.82;3.60;;;;;;;;;;4992115;28;20186;-89
2021/07/26 10:34:01;;;;;;;3.42;3.03;;;;;;;;;;4993478;28;20224;-89
2021/07/26 10:37:05;;;;;;;10.27;4.97;;;;;;;;;;4986400;28;20196;-89
2021/07/26 10:40:23;;;;;;;5.22;3.60;;;;;;;;;;5016513;28;20176;-89
2021/07/26 10:43:54;;;;;;;8.27;3.95;;;;;;;;;;4985292;28;20227;-86
2021/07/26 10:47:23;;;;;;;4.43;3.85;;;;;;;;;;4980409;28;20198;-86
2021/07/26 10:51:37;;;;;;;4.57;3.08;;;;;;;;;;4988847;28;20185;-86
2021/07/26 10:54:44;;;;;;;8.48;3.22;;;;;;;;;;4998444;28;20189;-87
2021/07/26 10:57:49;;;;;;;4.18;3.22;;;;;;;;;;4999923;28;20193;-87
2021/07/26 11:01:22;;;;;;;5.00;3.47;;;;;;;;;;4989307;28;20233;-87
2021/07/26 11:04:39;;;;;;;5.18;3.42;;;;;;;;;;4986793;28;20202;-87
2021/07/26 11:07:43;;;;;;;4.22;3.70;;;;;;;;;;4994968;28;20185;-87
2021/07/26 11:10:53;;;;;;;4.47;3.15;;;;;;;;;;5009450;28;20829;-87
2021/07/26 11:14:00;;;;;;;5.75;3.78;;;;;;;;;;4984194;28;20201;-88
2021/07/26 11:17:07;;;;;;;6.82;3.38;;;;;;;;;;4995380;28;20178;-88
2021/07/26 11:20:12;;;;;;;4.75;3.30;;;;;;;;;;4988200;28;20185;-87
2021/07/26 11:23:35;;;;;;;4.47;3.08;;;;;;;;;;4988934;28;20216;-88
2021/07/26 11:26:48;;;;;;;6.20;3.45;;;;;;;;;;4981351;28;20206;-88
2021/07/26 11:29:54;;;;;;;4.78;3.45;;;;;;;;;;4998051;28;20202;-88
2021/07/26 11:32:59;;;;;;;5.65;3.70;;;;;;;;;;4968736;28;20222;-88
2021/07/26 11:36:07;;;;;;;5.05;3.70;;;;;;;;;;4968705;28;20645;-87
2021/07/26 11:39:11;;;;;;;5.95;3.78;;;;;;;;;;4980107;28;20193;-88
2021/07/26 11:42:32;;;;;;;4.45;3.20;;;;;;;;;;4969441;28;20222;-88
2021/07/26 11:45:36;;;;;;;5.60;3.30;;;;;;;;;;4997637;28;20656;-88
2021/07/26 11:48:41;;;;;;;5.20;3.60;;;;;;;;;;5009494;28;20182;-88
2021/07/26 11:51:45;;;;;;;6.03;3.30;;;;;;;;;;5001150;28;20222;-88
2021/07/26 11:54:49;;;;;;;6.40;3.97;;;;;;;;;;4982862;28;20182;-88
2021/07/26 11:58:03;;;;;;;4.55;3.22;;;;;;;;;;4993665;28;20707;-87
2021/07/26 12:01:07;;;;;;;5.68;3.70;;;;;;;;;;4978848;28;20199;-88
2021/07/26 12:04:12;;;;;;;5.82;3.25;;;;;;;;;;5011140;28;20209;-87
2021/07/26 12:07:19;;;;;;;5.03;3.50;;;;;;;;;;4986435;28;20198;-87
2021/07/26 12:10:35;;;;;;;4.18;3.40;;;;;;;;;;4979900;28;20183;-88
2021/07/26 12:13:39;;;;;;;9.30;3.80;;;;;;;;;;4986886;28;20193;-87
2021/07/26 12:17:23;;;;;;;3.83;3.13;;;;;;;;;;4979456;28;20194;-87
2021/07/26 12:20:28;;;;;;;3.08;2.80;;;;;;;;;;4973936;28;20198;-87
2021/07/26 12:23:34;;;;;;;3.83;3.42;;;;;;;;;;4990145;28;20221;-88
2021/07/26 12:26:58;;;;;;;7.40;3.53;;;;;;;;;;4979055;28;20194;-87
2021/07/26 12:30:10;;;;;;;7.45;3.03;;;;;;;;;;4974917;28;20586;-88
2021/07/26 12:33:33;;;;;;;7.13;4.05;;;;;;;;;;4969367;28;20705;-86
2021/07/26 12:36:39;;;;;;;4.55;3.20;;;;;;;;;;4995499;28;20645;-87
2021/07/26 12:39:44;;;;;;;6.13;3.45;;;;;;;;;;4988297;28;20193;-87
2021/07/26 12:43:12;;;;;;;3.92;3.50;;;;;;;;;;4986776;28;20225;-87
2021/07/26 12:46:31;;;;;;;4.10;3.17;;;;;;;;;;4998065;28;20186;-87
2021/07/26 12:49:35;;;;;;;4.03;3.65;;;;;;;;;;4997295;28;20522;-88
2021/07/26 12:57:47;;;;;;;3.85;3.03;;;;;;;;;;4990275;28;20203;-87
2021/07/26 13:00:54;;;;;;;7.22;3.42;;;;;;;;;;4979189;28;20209;-88
2021/07/26 13:04:17;;;;;;;4.00;3.28;;;;;;;;;;4990158;28;20551;-88
2021/07/26 13:08:30;;;;;;;5.38;3.15;;;;;;;;;;4977259;28;20203;-87
2021/07/26 13:11:46;;;;;;;3.30;2.90;;;;;;;;;;4984647;28;20211;-88
2021/07/26 13:15:19;;;;;;;7.28;2.70;;;;;;;;;;4990604;28;20206;-86
2021/07/26 13:22:13;;;;;;;6.00;3.22;;;;;;;;;;4988279;28;20226;-87
2021/07/26 13:25:20;;;;;;;4.40;3.00;;;;;;;;;;4991898;28;20182;-87
2021/07/26 13:44:45;;;;;;;6.55;2.90;;;;;;;;;;5015465;28;20197;-87
2021/07/26 13:49:27;;;;;;;4.50;3.05;;;;;;;;;;5007256;28;20198;-87
2021/07/26 13:53:07;;;;;;;6.50;3.35;;;;;;;;;;4997247;28;20218;-87
2021/07/26 13:57:19;;;;;;;3.90;3.20;;;;;;;;;;4966436;28;20199;-86
2021/07/26 14:01:21;;;;;;;5.75;3.20;;;;;;;;;;4986132;23;20207;-75
2021/07/26 14:04:25;;;;;;;7.10;3.67;;;;;;;;;;4985026;28;20207;-73
2021/07/26 14:07:29;;;;;;;4.32;3.70;;;;;;;;;;4974478;28;20195;-74
2021/07/26 14:10:33;;;;;;;4.00;3.50;;;;;;;;;;4969007;28;20198;-73
2021/07/26 14:13:37;;;;;;;7.57;3.90;;;;;;;;;;4976986;28;20218;-75
2021/07/26 14:16:41;;;;;;;5.25;3.60;;;;;;;;;;4977047;28;20203;-73
2021/07/26 14:19:47;;;;;;;6.70;3.30;;;;;;;;;;4973276;28;20199;-73
2021/07/26 14:22:52;;;;;;;4.75;3.22;;;;;;;;;;4974705;28;20227;-73
2021/07/26 14:25:56;;;;;;;4.95;3.67;;;;;;;;;;4975427;28;20203;-74
2021/07/26 14:29:00;;;;;;;4.57;3.60;;;;;;;;;;4938621;29;20172;-75
2021/07/26 14:32:04;;;;;;;5.50;3.05;;;;;;;;;;4956570;28;20212;-75
2021/07/26 14:35:09;;;;;;;3.95;3.55;;;;;;;;;;4953641;29;20647;-75
2021/07/26 14:38:13;;;;;;;4.15;3.75;;;;;;;;;;4933771;29;20188;-74
2021/07/26 14:41:18;;;;;;;8.25;4.03;;;;;;;;;;4934250;29;20645;-74
2021/07/26 14:44:22;;;;;;;6.63;4.50;;;;;;;;;;4950964;28;20192;-74
2021/07/26 14:47:27;;;;;;;7.18;3.83;;;;;;;;;;4963418;28;20214;-74
2021/07/26 14:50:32;;;;;;;10.25;4.03;;;;;;;;;;4972755;28;20182;-74
2021/07/26 14:53:37;;;;;;;5.78;4.25;;;;;;;;;;4965951;28;20737;-74
2021/07/26 14:56:41;;;;;;;4.57;4.07;;;;;;;;;;4933954;29;20180;-74
2021/07/26 14:59:45;;;;;;;8.32;4.22;;;;;;;;;;4934328;29;20196;-74
2021/07/26 15:02:50;;;;;;;5.45;3.67;;;;;;;;;;4949861;28;20712;-74
2021/07/26 15:05:54;;;;;;;7.97;4.00;;;;;;;;;;4972158;28;20203;-74
2021/07/26 15:08:58;;;;;;;8.55;4.38;;;;;;;;;;4968150;28;20198;-74
2021/07/26 15:12:03;;;;;;;12.90;4.32;;;;;;;;;;4951918;28;20216;-74
2021/07/26 15:15:07;;;;;;;6.13;4.55;;;;;;;;;;4971283;28;20195;-74
2021/07/26 15:18:11;;;;;;;7.57;5.28;;;;;;;;;;4953014;29;20214;-74
2021/07/26 15:21:16;;;;;;;5.93;4.10;;;;;;;;;;4951789;29;20682;-74
2021/07/26 15:24:21;;;;;;;7.47;3.95;;;;;;;;;;4953018;29;20636;-74
2021/07/26 15:27:25;;;;;;;7.78;4.07;;;;;;;;;;4955260;28;20532;-73
2021/07/26 15:30:29;;;;;;;5.22;4.32;;;;;;;;;;4972460;28;20222;-73
2021/07/26 15:33:33;;;;;;;5.95;4.32;;;;;;;;;;4971604;28;20227;-73
2021/07/26 15:36:38;;;;;;;6.45;4.00;;;;;;;;;;4932960;29;20195;-74
2021/07/26 15:39:42;;;;;;;7.32;5.07;;;;;;;;;;4933792;29;20539;-73
2021/07/26 15:42:46;;;;;;;7.50;4.60;;;;;;;;;;4933312;29;20733;-74
2021/07/26 15:45:50;;;;;;;5.53;4.63;;;;;;;;;;4933151;29;20194;-74
2021/07/26 15:48:54;;;;;;;4.93;4.00;;;;;;;;;;4933456;29;20194;-74
2021/07/26 15:51:59;;;;;;;6.47;4.40;;;;;;;;;;4933246;29;20222;-74
2021/07/26 15:55:03;;;;;;;7.38;4.28;;;;;;;;;;4933087;29;20189;-74
2021/07/26 15:58:08;;;;;;;7.25;3.80;;;;;;;;;;4933071;29;20181;-74
2021/07/26 16:01:11;;;;;;;8.02;4.35;;;;;;;;;;4962149;28;20659;-74
2021/07/26 16:04:15;;;;;;;8.43;5.13;;;;;;;;;;4965692;28;20193;-73
2021/07/26 16:07:20;;;;;;;9.10;4.38;;;;;;;;;;4951252;28;20559;-74
2021/07/26 16:10:24;;;;;;;5.68;4.53;;;;;;;;;;4962488;28;20189;-73
2021/07/26 16:13:29;;;;;;;6.28;4.43;;;;;;;;;;4967651;28;20236;-74
2021/07/26 16:16:34;;;;;;;8.52;4.32;;;;;;;;;;4959551;28;20536;-74
2021/07/26 16:19:38;;;;;;;7.75;4.40;;;;;;;;;;4962336;28;20206;-74
2021/07/26 16:22:42;;;;;;;11.82;4.85;;;;;;;;;;4951515;29;20227;-73
2021/07/26 16:25:46;;;;;;;5.60;5.00;;;;;;;;;;4932948;29;20198;-73
2021/07/26 16:28:52;;;;;;;5.22;4.72;;;;;;;;;;4950508;28;20197;-73
2021/07/26 16:31:57;;;;;;;4.70;4.15;;;;;;;;;;4964430;28;20220;-73
2021/07/26 16:35:01;;;;;;;7.13;4.83;;;;;;;;;;4950965;28;20627;-74
2021/07/26 16:38:05;;;;;;;6.47;5.20;;;;;;;;;;4962593;28;20195;-75
2021/07/26 16:41:10;;;;;;;4.37;3.97;;;;;;;;;;4965746;28;20201;-75
2021/07/26 16:44:17;;;;;;;7.33;4.93;;;;;;;;;;4933877;28;20177;-75
2021/07/26 16:47:21;;;;;;;5.37;4.87;;;;;;;;;;4953972;28;20198;-75
2021/07/26 16:50:25;;;;;;;9.97;5.60;;;;;;;;;;4969777;28;20192;-75
2021/07/26 16:53:30;;;;;;;8.40;5.60;;;;;;;;;;4949682;28;20217;-74
2021/07/26 16:56:35;;;;;;;7.93;4.90;;;;;;;;;;4968602;28;20202;-75
2021/07/26 16:59:40;;;;;;;7.23;6.53;;;;;;;;;;4942203;28;20542;-73
2021/07/26 17:02:44;;;;;;;13.40;6.43;;;;;;;;;;4956817;28;20708;-73
2021/07/26 17:05:48;;;;;;;7.10;5.10;;;;;;;;;;4961382;28;20210;-74
2021/07/26 17:08:52;;;;;;;7.57;5.03;;;;;;;;;;4951445;28;20412;-74
2021/07/26 17:11:56;;;;;;;8.83;4.93;;;;;;;;;;4966999;28;20218;-74
2021/07/26 17:15:00;;;;;;;5.57;4.60;;;;;;;;;;4970251;28;20195;-75
2021/07/26 17:18:05;;;;;;;5.43;4.83;;;;;;;;;;4952185;28;20214;-74
2021/07/26 17:21:09;;;;;;;6.87;5.00;;;;;;;;;;4965117;28;20585;-74
2021/07/26 17:24:03;;;;;;;20.23;8.20;;;;;;;;;;5000747;23;20240;-73
2021/07/26 17:27:07;;;;;;;6.83;5.00;;;;;;;;;;5011454;28;20203;-73
2021/07/26 17:30:12;;;;;;;8.90;5.60;;;;;;;;;;5019814;28;20198;-74
2021/07/26 17:33:16;;;;;;;6.23;4.60;;;;;;;;;;5009531;28;20227;-73
2021/07/26 17:36:20;;;;;;;8.97;5.27;;;;;;;;;;5008027;28;20202;-74
2021/07/26 17:39:25;;;;;;;11.63;5.47;;;;;;;;;;5009543;28;20205;-73
2021/07/26 17:42:29;;;;;;;11.73;5.90;;;;;;;;;;5009459;28;20229;-74
2021/07/26 17:45:33;;;;;;;9.80;5.13;;;;;;;;;;5009249;28;20202;-74
2021/07/26 17:48:38;;;;;;;5.43;4.87;;;;;;;;;;5009925;28;20198;-73
2021/07/26 17:51:42;;;;;;;5.57;4.60;;;;;;;;;;5013976;28;20696;-74
2021/07/26 17:54:46;;;;;;;10.77;4.50;;;;;;;;;;5013144;28;20193;-74
2021/07/26 17:57:51;;;;;;;6.83;4.43;;;;;;;;;;5010900;28;20196;-74
2021/07/26 18:00:55;;;;;;;8.07;4.13;;;;;;;;;;5013892;28;20728;-73
2021/07/26 18:03:59;;;;;;;4.87;4.00;;;;;;;;;;5013307;28;20201;-74
2021/07/26 18:07:11;;;;;;;7.07;3.57;;;;;;;;;;4993924;28;20530;-73
2021/07/26 18:10:16;;;;;;;3.00;2.30;;;;;;;;;;4993256;28;20174;-73
2021/07/26 18:13:21;;;;;;;2.10;1.30;;;;;;;;;;5008885;28;20213;-73
2021/07/26 18:16:27;;;;;;;6.30;1.80;;;;;;;;;;5013243;28;20182;-73
2021/07/26 18:19:31;;;;;;;3.60;1.23;;;;;;;;;;5012270;28;20664;-73
2021/07/26 18:22:35;;;;;;;4.60;1.60;;;;;;;;;;5012181;28;20224;-73
2021/07/26 18:25:39;;;;;;;3.03;1.27;;;;;;;;;;5001122;28;20557;-74
2021/07/26 18:28:43;;;;;;;3.77;1.50;;;;;;;;;;5013289;28;20198;-74
2021/07/26 18:31:47;;;;;;;4.63;1.33;;;;;;;;;;5013227;28;20209;-74
2021/07/26 18:34:52;;;;;;;3.10;1.63;;;;;;;;;;5012407;28;20189;-74
2021/07/26 18:37:56;;;;;;;4.37;1.50;;;;;;;;;;4989701;28;20556;-74
2021/07/26 18:41:00;;;;;;;2.87;1.57;;;;;;;;;;5013684;28;20177;-74
2021/07/26 18:44:05;;;;;;;4.17;2.13;;;;;;;;;;5013136;28;20209;-74
2021/07/26 18:47:10;;;;;;;3.60;1.80;;;;;;;;;;5012777;28;20193;-74
2021/07/26 18:50:15;;;;;;;7.97;3.97;;;;;;;;;;5011642;28;20676;-74
2021/07/26 18:53:19;;;;;;;18.17;10.80;;;;;;;;;;5012397;28;20217;-73
2021/07/26 18:56:24;;;;;;;17.83;12.40;;;;;;;;;;5011888;28;20212;-73
2021/07/26 18:59:28;;;;;;;21.23;10.83;;;;;;;;;;5012742;28;20195;-73
2021/07/26 19:02:32;;;;;;;17.10;9.73;;;;;;;;;;5012760;28;20236;-73
2021/07/26 19:05:36;;;;;;;7.40;3.60;;;;;;;;;;5012326;28;20189;-73
2021/07/26 19:08:40;;;;;;;4.23;1.70;;;;;;;;;;5011899;28;20197;-73